createdAt,value
2017-12-24T00:00:45.693Z,8.13
2017-12-24T00:03:12.415Z,7.40
2017-12-24T00:05:39.125Z,9.00
2017-12-24T00:08:05.843Z,8.30
2017-12-24T00:10:32.567Z,8.00
2017-12-24T00:12:59.349Z,7.73
2017-12-24T00:15:26.071Z,8.40
2017-12-24T00:17:52.778Z,8.53
2017-12-24T00:20:19.534Z,9.63
2017-12-24T00:22:46.265Z,8.63
2017-12-24T00:25:12.984Z,8.90
2017-12-24T00:27:39.704Z,8.70
2017-12-24T00:30:06.427Z,7.90
2017-12-24T00:32:33.127Z,7.40
2017-12-24T00:34:59.874Z,8.50
2017-12-24T00:37:26.592Z,8.63
2017-12-24T00:39:53.311Z,8.40
2017-12-24T00:42:20.060Z,8.40
2017-12-24T00:44:46.766Z,7.27
2017-12-24T00:47:13.474Z,9.00
2017-12-24T00:49:40.268Z,8.40
2017-12-24T00:52:06.974Z,7.23
2017-12-24T00:54:33.802Z,7.90
2017-12-24T00:57:00.531Z,8.07
2017-12-24T00:59:27.240Z,8.03
2017-12-24T01:01:53.953Z,8.70
2017-12-24T01:04:20.681Z,8.00
2017-12-24T01:06:47.381Z,7.40
2017-12-24T01:09:14.086Z,9.43
2017-12-24T01:11:40.814Z,8.77
2017-12-24T01:14:07.549Z,8.50
2017-12-24T01:16:34.249Z,8.67
2017-12-24T01:19:00.981Z,8.90
2017-12-24T01:21:27.687Z,8.23
2017-12-24T01:23:54.423Z,8.73
2017-12-24T01:26:21.134Z,8.60
2017-12-24T01:28:47.844Z,8.50
2017-12-24T01:31:14.548Z,7.93
2017-12-24T01:33:41.297Z,7.80
2017-12-24T01:36:07.994Z,7.13
2017-12-24T01:38:34.698Z,8.03
2017-12-24T01:41:01.404Z,6.73
2017-12-24T01:43:28.113Z,7.40
2017-12-24T01:45:54.853Z,8.03
2017-12-24T01:48:21.582Z,8.80
2017-12-24T01:50:48.293Z,8.20
2017-12-24T01:53:15.007Z,8.33
2017-12-24T01:55:41.726Z,7.17
2017-12-24T01:58:08.431Z,7.83
2017-12-24T02:00:35.154Z,7.63
2017-12-24T02:03:01.866Z,8.70
2017-12-24T02:05:28.610Z,10.10
2017-12-24T02:07:55.310Z,8.23
2017-12-24T02:10:22.037Z,10.00
2017-12-24T02:12:48.755Z,10.20
2017-12-24T02:15:15.463Z,9.00
2017-12-24T02:17:42.186Z,8.60
2017-12-24T02:20:08.905Z,10.43
2017-12-24T02:22:35.626Z,9.20
2017-12-24T02:25:02.352Z,8.63
2017-12-24T02:27:29.056Z,9.60
2017-12-24T02:29:55.751Z,7.93
2017-12-24T02:32:22.454Z,8.33
2017-12-24T02:34:49.188Z,8.03
2017-12-24T02:37:15.894Z,7.47
2017-12-24T02:39:42.611Z,8.40
2017-12-24T02:42:09.318Z,7.60
2017-12-24T02:44:36.019Z,7.20
2017-12-24T02:47:02.749Z,7.67
2017-12-24T02:49:29.459Z,7.30
2017-12-24T02:51:56.171Z,7.90
2017-12-24T02:54:22.919Z,7.97
2017-12-24T02:56:49.623Z,7.43
2017-12-24T02:59:16.334Z,7.80
2017-12-24T03:01:43.057Z,7.60
2017-12-24T03:04:09.783Z,6.93
2017-12-24T03:06:36.581Z,6.87
2017-12-24T03:09:03.393Z,7.00
2017-12-24T03:11:30.097Z,7.17
2017-12-24T03:13:56.802Z,6.37
2017-12-24T03:16:23.546Z,5.53
2017-12-24T03:18:50.252Z,5.73
2017-12-24T03:21:16.957Z,5.33
2017-12-24T03:23:43.670Z,6.27
2017-12-24T03:26:10.365Z,6.17
2017-12-24T03:28:37.071Z,5.70
2017-12-24T03:31:03.811Z,5.63
2017-12-24T03:33:30.520Z,5.07
2017-12-24T03:35:57.225Z,4.87
2017-12-24T03:38:23.961Z,5.80
2017-12-24T03:40:50.664Z,5.87
2017-12-24T03:43:17.364Z,5.90
2017-12-24T03:45:44.082Z,6.30
2017-12-24T03:48:10.781Z,4.83
2017-12-24T03:50:37.497Z,5.03
2017-12-24T03:53:04.238Z,4.63
2017-12-24T03:55:30.952Z,5.47
2017-12-24T03:57:57.655Z,5.50
2017-12-24T04:00:24.389Z,5.30
2017-12-24T04:02:51.099Z,4.97
2017-12-24T04:05:17.808Z,5.33
2017-12-24T04:07:44.554Z,5.27
2017-12-24T04:10:11.260Z,4.83
2017-12-24T04:12:37.991Z,4.40
2017-12-24T04:15:04.730Z,4.47
2017-12-24T04:17:31.436Z,4.90
2017-12-24T04:19:58.139Z,4.50
2017-12-24T04:22:24.873Z,4.60
2017-12-24T04:24:51.594Z,4.27
2017-12-24T04:27:19.224Z,4.53
2017-12-24T04:29:45.948Z,4.67
2017-12-24T04:32:12.650Z,4.70
2017-12-24T04:34:39.372Z,4.37
2017-12-24T04:37:06.098Z,4.53
2017-12-24T04:39:32.801Z,4.33
2017-12-24T04:41:59.499Z,4.03
2017-12-24T04:44:26.242Z,3.70
2017-12-24T04:46:52.944Z,4.30
2017-12-24T04:49:19.667Z,4.20
2017-12-24T04:51:46.403Z,3.90
2017-12-24T04:54:13.102Z,4.40
2017-12-24T04:56:39.813Z,4.33
2017-12-24T04:59:06.595Z,3.20
2017-12-24T05:01:34.307Z,4.23
2017-12-24T05:04:01.013Z,4.07
2017-12-24T05:06:27.740Z,4.60
2017-12-24T05:08:54.465Z,4.63
2017-12-24T05:11:21.180Z,4.72
2017-12-24T05:13:47.904Z,4.70
2017-12-24T05:16:14.630Z,4.30
2017-12-24T05:18:41.325Z,4.40
2017-12-24T05:21:08.066Z,3.80
2017-12-24T05:23:34.782Z,5.03
2017-12-24T05:26:01.503Z,4.23
2017-12-24T05:28:28.235Z,4.20
2017-12-24T05:30:54.960Z,4.30
2017-12-24T05:33:21.669Z,3.43
2017-12-24T05:35:48.394Z,4.47
2017-12-24T05:38:15.094Z,3.17
2017-12-24T05:40:41.797Z,4.50
2017-12-24T05:43:08.517Z,3.90
2017-12-24T05:45:35.229Z,2.90
2017-12-24T05:48:01.946Z,3.37
2017-12-24T05:50:28.787Z,3.73
2017-12-24T05:52:55.589Z,3.10
2017-12-24T05:55:22.291Z,4.17
2017-12-24T05:57:49.030Z,4.07
2017-12-24T06:00:15.745Z,3.80
2017-12-24T06:02:42.449Z,3.87
2017-12-24T06:05:09.161Z,3.60
2017-12-24T06:07:35.870Z,4.17
2017-12-24T06:10:02.648Z,4.30
2017-12-24T06:12:29.350Z,3.40
2017-12-24T06:14:56.067Z,3.63
2017-12-24T06:17:22.780Z,3.60
2017-12-24T06:19:49.508Z,4.30
2017-12-24T06:22:16.223Z,4.33
2017-12-24T06:24:42.995Z,3.23
2017-12-24T06:27:09.830Z,4.30
2017-12-24T06:29:36.541Z,3.60
2017-12-24T06:32:03.248Z,4.10
2017-12-24T06:34:30.029Z,3.57
2017-12-24T06:36:56.801Z,2.67
2017-12-24T06:39:23.523Z,2.80
2017-12-24T06:41:50.294Z,4.00
2017-12-24T06:44:17.013Z,3.73
2017-12-24T06:46:43.731Z,3.60
2017-12-24T06:49:10.462Z,3.80
2017-12-24T06:51:37.199Z,4.20
2017-12-24T06:54:03.910Z,4.27
2017-12-24T06:56:30.651Z,4.20
2017-12-24T06:58:57.366Z,3.30
2017-12-24T07:01:24.088Z,3.43
2017-12-24T07:03:50.813Z,2.87
2017-12-24T07:06:17.525Z,3.50
2017-12-24T07:08:44.236Z,3.63
2017-12-24T07:11:10.953Z,3.77
2017-12-24T07:13:37.656Z,4.07
2017-12-24T07:16:04.365Z,3.77
2017-12-24T07:18:31.115Z,4.30
2017-12-24T07:20:57.816Z,3.90
2017-12-24T07:23:24.523Z,3.60
2017-12-24T07:25:51.240Z,4.67
2017-12-24T07:28:17.953Z,3.63
2017-12-24T07:30:44.677Z,4.70
2017-12-24T07:33:11.400Z,3.83
2017-12-24T07:35:38.114Z,4.47
2017-12-24T07:38:04.876Z,4.87
2017-12-24T07:40:31.574Z,4.23
2017-12-24T07:42:58.285Z,4.30
2017-12-24T07:45:24.995Z,4.80
2017-12-24T07:47:51.727Z,5.40
2017-12-24T07:50:18.433Z,4.80
2017-12-24T07:52:45.166Z,5.13
2017-12-24T07:55:11.887Z,5.10
2017-12-24T07:57:38.595Z,4.57
2017-12-24T08:00:05.296Z,5.77
2017-12-24T08:02:32.026Z,5.40
2017-12-24T08:04:58.734Z,5.90
2017-12-24T08:07:25.443Z,6.97
2017-12-24T08:09:52.182Z,7.17
2017-12-24T08:12:18.917Z,6.70
2017-12-24T08:14:45.629Z,5.67
2017-12-24T08:17:12.367Z,6.63
2017-12-24T08:19:39.073Z,6.13
2017-12-24T08:22:05.822Z,6.13
2017-12-24T08:24:32.589Z,6.53
2017-12-24T08:26:59.313Z,6.60
2017-12-24T08:29:26.023Z,6.27
2017-12-24T08:31:52.749Z,6.47
2017-12-24T08:34:19.469Z,6.70
2017-12-24T08:36:46.191Z,6.13
2017-12-24T08:39:13.018Z,6.30
2017-12-24T08:41:39.804Z,6.90
2017-12-24T08:44:06.521Z,7.13
2017-12-24T08:46:33.257Z,7.27
2017-12-24T08:48:59.996Z,7.00
2017-12-24T08:51:26.711Z,8.40
2017-12-24T08:53:53.461Z,8.10
2017-12-24T08:56:20.232Z,7.57
2017-12-24T08:58:46.977Z,8.80
2017-12-24T09:01:13.712Z,9.57
2017-12-24T09:03:40.468Z,9.70
2017-12-24T09:06:07.210Z,36.20
2017-12-24T09:08:33.954Z,16.50
2017-12-24T09:11:00.684Z,14.57
2017-12-24T09:13:27.401Z,16.43
2017-12-24T09:15:54.135Z,15.50
2017-12-24T09:18:20.841Z,15.70
2017-12-24T09:20:47.562Z,16.60
2017-12-24T09:23:14.305Z,13.20
2017-12-24T09:25:41.025Z,16.63
2017-12-24T09:28:07.732Z,15.73
2017-12-24T09:30:34.492Z,16.40
2017-12-24T09:33:01.231Z,13.07
2017-12-24T09:35:27.960Z,9.87
2017-12-24T09:37:54.693Z,8.80
2017-12-24T09:40:21.442Z,9.97
2017-12-24T09:42:48.164Z,9.80
2017-12-24T09:45:14.931Z,9.60
2017-12-24T09:47:41.649Z,10.10
2017-12-24T09:50:08.366Z,10.30
2017-12-24T09:52:35.112Z,9.80
2017-12-24T09:55:01.834Z,10.67
2017-12-24T09:57:28.545Z,9.97
2017-12-24T09:59:55.284Z,9.43
2017-12-24T10:02:22.002Z,10.10
2017-12-24T10:04:48.749Z,9.80
2017-12-24T10:07:15.482Z,9.43
2017-12-24T10:09:42.194Z,9.07
2017-12-24T10:12:08.926Z,9.67
2017-12-24T10:14:35.634Z,9.90
2017-12-24T10:17:02.373Z,9.60
2017-12-24T10:19:29.122Z,9.40
2017-12-24T10:21:55.854Z,8.40
2017-12-24T10:24:22.592Z,9.33
2017-12-24T10:26:49.350Z,8.90
2017-12-24T10:29:16.119Z,8.90
2017-12-24T10:31:42.889Z,10.60
2017-12-24T10:34:09.613Z,9.87
2017-12-24T10:36:36.351Z,9.30
2017-12-24T10:39:03.092Z,10.00
2017-12-24T10:41:29.833Z,10.53
2017-12-24T10:43:56.566Z,9.90
2017-12-24T10:46:23.281Z,9.13
2017-12-24T10:48:50.021Z,9.37
2017-12-24T10:51:16.757Z,10.17
2017-12-24T10:53:43.502Z,9.47
2017-12-24T10:56:10.249Z,9.77
2017-12-24T10:58:36.982Z,10.30
2017-12-24T11:01:03.688Z,9.97
2017-12-24T11:03:30.404Z,9.87
2017-12-24T11:05:57.155Z,9.97
2017-12-24T11:08:23.894Z,9.83
2017-12-24T11:10:50.642Z,10.03
2017-12-24T11:13:17.387Z,9.57
2017-12-24T11:15:44.115Z,8.80
2017-12-24T11:18:10.882Z,10.50
2017-12-24T11:20:37.621Z,10.60
2017-12-24T11:23:04.328Z,9.73
2017-12-24T11:25:31.037Z,10.40
2017-12-24T11:27:57.785Z,10.10
2017-12-24T11:30:24.513Z,10.03
2017-12-24T11:32:51.245Z,10.07
2017-12-24T11:35:18.068Z,10.37
2017-12-24T11:37:44.743Z,9.90
2017-12-24T11:40:11.466Z,10.00
2017-12-24T11:42:38.237Z,11.00
2017-12-24T11:45:04.965Z,10.67
2017-12-24T11:47:31.702Z,14.97
2017-12-24T11:49:58.432Z,43.83
2017-12-24T11:52:25.160Z,13.90
2017-12-24T11:54:51.910Z,73.70
2017-12-24T11:57:18.674Z,20.60
2017-12-24T11:59:45.404Z,12.43
2017-12-24T12:02:12.163Z,12.20
2017-12-24T12:04:38.895Z,12.00
2017-12-24T12:07:05.629Z,11.20
2017-12-24T12:09:32.349Z,11.87
2017-12-24T12:11:59.184Z,10.83
2017-12-24T12:14:25.916Z,11.00
2017-12-24T12:16:52.672Z,10.87
2017-12-24T12:19:19.396Z,10.90
2017-12-24T12:21:46.130Z,14.27
2017-12-24T12:24:12.891Z,12.80
2017-12-24T12:26:39.665Z,12.10
2017-12-24T12:29:06.402Z,12.60
2017-12-24T12:31:33.151Z,11.30
2017-12-24T12:33:59.884Z,12.00
2017-12-24T12:36:26.638Z,10.50
2017-12-24T12:38:53.413Z,11.20
2017-12-24T12:41:20.178Z,13.20
2017-12-24T12:43:46.908Z,13.53
2017-12-24T12:46:13.654Z,12.87
2017-12-24T12:48:40.389Z,10.97
2017-12-24T12:51:07.402Z,11.40
2017-12-24T12:53:34.192Z,12.47
2017-12-24T12:56:00.926Z,11.60
2017-12-24T12:58:27.658Z,11.33
2017-12-24T13:00:54.384Z,13.57
2017-12-24T13:03:21.139Z,11.13
2017-12-24T13:05:47.858Z,10.90
2017-12-24T13:08:14.601Z,14.03
2017-12-24T13:10:41.337Z,14.70
2017-12-24T13:13:08.052Z,12.70
2017-12-24T13:15:34.786Z,11.30
2017-12-24T13:18:01.541Z,11.20
2017-12-24T13:20:28.291Z,34.53
2017-12-24T13:22:55.010Z,21.43
2017-12-24T13:25:21.751Z,15.70
2017-12-24T13:27:48.488Z,26.50
2017-12-24T13:30:15.236Z,12.57
2017-12-24T13:32:41.956Z,12.33
2017-12-24T13:35:08.698Z,13.60
2017-12-24T13:37:35.445Z,12.93
2017-12-24T13:40:02.177Z,16.17
2017-12-24T13:42:28.935Z,14.20
2017-12-24T13:44:55.664Z,13.37
2017-12-24T13:47:22.415Z,14.77
2017-12-24T13:49:49.133Z,13.97
2017-12-24T13:52:15.889Z,13.50
2017-12-24T13:54:42.637Z,16.07
2017-12-24T13:57:09.374Z,13.63
2017-12-24T13:59:40.200Z,16.00
2017-12-24T14:02:07.166Z,15.47
2017-12-24T14:04:33.915Z,14.10
2017-12-24T14:07:00.636Z,16.90
2017-12-24T14:09:27.390Z,17.30
2017-12-24T14:11:54.104Z,15.80
2017-12-24T14:14:20.866Z,15.70
2017-12-24T14:16:47.586Z,15.97
2017-12-24T14:19:14.319Z,15.20
2017-12-24T14:21:41.043Z,16.87
2017-12-24T14:24:07.804Z,13.20
2017-12-24T14:26:34.536Z,13.67
2017-12-24T14:29:01.253Z,14.43
2017-12-24T14:31:28.014Z,13.10
2017-12-24T14:33:54.740Z,13.03
2017-12-24T14:36:21.449Z,12.57
2017-12-24T14:38:48.184Z,12.40
2017-12-24T14:41:14.900Z,12.00
2017-12-24T14:43:41.624Z,12.00
2017-12-24T14:46:08.371Z,11.50
2017-12-24T14:48:35.101Z,12.83
2017-12-24T14:51:01.837Z,10.90
2017-12-24T14:53:28.557Z,11.37
2017-12-24T14:55:55.268Z,12.53
2017-12-24T14:58:21.989Z,13.30
2017-12-24T15:00:48.729Z,13.60
2017-12-24T15:03:15.522Z,13.67
2017-12-24T15:05:42.250Z,13.00
2017-12-24T15:08:09.001Z,12.37
2017-12-24T15:10:35.709Z,14.80
2017-12-24T15:13:02.426Z,15.97
2017-12-24T15:15:29.201Z,34.07
2017-12-24T15:17:55.917Z,31.87
2017-12-24T15:20:22.667Z,35.33
2017-12-24T15:22:49.403Z,30.70
2017-12-24T15:25:16.123Z,32.33
2017-12-24T15:27:42.851Z,16.67
2017-12-24T15:30:09.587Z,19.70
2017-12-24T15:32:36.310Z,16.57
2017-12-24T15:35:03.026Z,15.60
2017-12-24T15:37:29.802Z,14.63
2017-12-24T15:39:56.560Z,13.83
2017-12-24T15:42:23.261Z,14.13
2017-12-24T15:44:50.018Z,15.13
2017-12-24T15:47:16.730Z,14.67
2017-12-24T15:49:43.443Z,15.77
2017-12-24T15:52:10.523Z,14.37
2017-12-24T15:54:37.234Z,14.40
2017-12-24T15:57:03.966Z,14.50
2017-12-24T15:59:30.693Z,14.57
2017-12-24T16:01:57.418Z,12.63
2017-12-24T16:04:24.178Z,12.13
2017-12-24T16:06:50.914Z,15.63
2017-12-24T16:09:17.677Z,15.07
2017-12-24T16:11:44.389Z,14.60
2017-12-24T16:14:11.328Z,14.80
2017-12-24T16:16:38.046Z,14.70
2017-12-24T16:19:04.761Z,12.30
2017-12-24T16:21:31.499Z,15.03
2017-12-24T16:23:58.222Z,12.93
2017-12-24T16:26:24.936Z,15.50
2017-12-24T16:28:51.985Z,14.20
2017-12-24T16:31:18.702Z,12.67
2017-12-24T16:33:45.410Z,11.37
2017-12-24T16:36:12.166Z,10.97
2017-12-24T16:38:38.886Z,11.70
2017-12-24T16:41:05.637Z,10.10
2017-12-24T16:43:32.362Z,9.07
2017-12-24T16:45:59.115Z,10.13
2017-12-24T16:48:25.843Z,9.13
2017-12-24T16:50:52.565Z,10.20
2017-12-24T16:53:19.301Z,11.60
2017-12-24T16:55:46.005Z,9.73
2017-12-24T16:58:12.758Z,10.27
2017-12-24T17:00:39.665Z,10.13
2017-12-24T17:03:06.393Z,12.37
2017-12-24T17:05:33.179Z,10.10
2017-12-24T17:07:59.889Z,9.63
2017-12-24T17:10:26.612Z,9.57
2017-12-24T17:12:53.353Z,9.50
2017-12-24T17:15:20.070Z,9.70
2017-12-24T17:17:46.777Z,9.43
2017-12-24T17:20:13.516Z,9.77
2017-12-24T17:22:40.235Z,9.73
2017-12-24T17:25:06.950Z,10.80
2017-12-24T17:27:33.692Z,13.00
2017-12-24T17:30:00.601Z,10.80
2017-12-24T17:32:27.350Z,13.13
2017-12-24T17:34:54.110Z,10.63
2017-12-24T17:37:21.155Z,11.10
2017-12-24T17:39:48.335Z,9.73
2017-12-24T17:42:15.067Z,9.90
2017-12-24T17:44:41.778Z,8.83
2017-12-24T17:47:08.503Z,10.03
2017-12-24T17:49:35.255Z,9.40
2017-12-24T17:52:01.980Z,9.90
2017-12-24T17:54:28.682Z,8.20
2017-12-24T17:56:55.516Z,8.30
2017-12-24T17:59:22.237Z,7.53
2017-12-24T18:01:48.948Z,8.93
2017-12-24T18:04:15.749Z,8.60
2017-12-24T18:06:42.450Z,9.17
2017-12-24T18:09:09.163Z,9.50
2017-12-24T18:11:35.891Z,8.90
2017-12-24T18:14:02.613Z,8.40
2017-12-24T18:16:29.318Z,9.40
2017-12-24T18:18:56.076Z,10.47
2017-12-24T18:21:22.823Z,12.00
2017-12-24T18:23:49.553Z,9.77
2017-12-24T18:26:16.299Z,9.70
2017-12-24T18:28:43.017Z,7.80
2017-12-24T18:31:09.755Z,9.13
2017-12-24T18:33:36.499Z,8.13
2017-12-24T18:36:03.236Z,8.70
2017-12-24T18:38:29.946Z,7.80
2017-12-24T18:40:56.681Z,8.10
2017-12-24T18:43:23.404Z,8.87
2017-12-24T18:45:50.139Z,7.90
2017-12-24T18:48:16.895Z,8.97
2017-12-24T18:50:43.607Z,8.87
2017-12-24T18:53:10.326Z,10.10
2017-12-24T18:55:37.060Z,8.30
2017-12-24T18:58:03.793Z,8.87
2017-12-24T19:00:30.515Z,8.47
2017-12-24T19:02:57.267Z,6.83
2017-12-24T19:05:24.006Z,9.30
2017-12-24T19:07:50.724Z,10.03
2017-12-24T19:10:17.462Z,8.70
2017-12-24T19:12:44.197Z,9.60
2017-12-24T19:15:10.918Z,9.03
2017-12-24T19:17:37.675Z,9.70
2017-12-24T19:20:04.393Z,9.60
2017-12-24T19:22:31.139Z,9.97
2017-12-24T19:24:57.879Z,9.00
2017-12-24T19:27:24.600Z,10.10
2017-12-24T19:29:51.363Z,10.00
2017-12-24T19:32:18.109Z,8.60
2017-12-24T19:34:44.839Z,10.90
2017-12-24T19:37:11.581Z,10.23
2017-12-24T19:39:38.324Z,11.47
2017-12-24T19:42:05.052Z,10.97
2017-12-24T19:44:31.800Z,10.77
2017-12-24T19:46:58.565Z,10.43
2017-12-24T19:49:25.273Z,9.40
2017-12-24T19:51:52.013Z,10.87
2017-12-24T19:54:18.749Z,12.10
2017-12-24T19:56:45.519Z,10.20
2017-12-24T19:59:12.247Z,13.00
2017-12-24T20:01:39.018Z,11.67
2017-12-24T20:04:05.783Z,11.80
2017-12-24T20:06:32.519Z,11.63
2017-12-24T20:08:59.284Z,12.23
2017-12-24T20:11:26.022Z,11.60
2017-12-24T20:13:53.698Z,12.73
2017-12-24T20:16:20.497Z,12.70
2017-12-24T20:18:47.219Z,12.47
2017-12-24T20:21:13.964Z,12.30
2017-12-24T20:23:40.681Z,16.83
2017-12-24T20:26:07.478Z,13.10
2017-12-24T20:28:34.220Z,13.30
2017-12-24T20:31:00.958Z,13.40
2017-12-24T20:33:27.757Z,13.27
2017-12-24T20:35:54.481Z,12.93
2017-12-24T20:38:21.238Z,12.67
2017-12-24T20:40:47.998Z,13.10
2017-12-24T20:43:14.808Z,12.50
2017-12-24T20:45:41.576Z,12.77
2017-12-24T20:48:08.386Z,11.67
2017-12-24T20:50:35.116Z,12.40
2017-12-24T20:53:01.873Z,12.20
2017-12-24T20:55:28.620Z,11.63
2017-12-24T20:57:55.418Z,11.50
2017-12-24T21:00:22.227Z,12.27
2017-12-24T21:02:49.671Z,12.77
2017-12-24T21:05:18.034Z,12.20
2017-12-24T21:07:44.853Z,10.37
2017-12-24T21:10:11.591Z,12.57
2017-12-24T21:12:38.348Z,11.17
2017-12-24T21:15:05.210Z,12.90
2017-12-24T21:17:31.962Z,12.87
2017-12-24T21:19:58.728Z,12.37
2017-12-24T21:22:25.500Z,11.07
2017-12-24T21:24:52.247Z,11.50
2017-12-24T21:27:19.018Z,11.87
2017-12-24T21:29:45.753Z,10.93
2017-12-24T21:32:12.492Z,12.17
2017-12-24T21:34:39.249Z,11.30
2017-12-24T21:37:06.009Z,9.60
2017-12-24T21:39:32.751Z,10.50
2017-12-24T21:41:59.507Z,10.57
2017-12-24T21:44:26.298Z,12.13
2017-12-24T21:46:53.041Z,11.70
2017-12-24T21:49:19.890Z,11.63
2017-12-24T21:51:46.625Z,11.20
2017-12-24T21:54:13.368Z,10.90
2017-12-24T21:56:40.140Z,10.40
2017-12-24T21:59:06.878Z,11.50
2017-12-24T22:01:33.651Z,10.60
2017-12-24T22:04:00.428Z,11.20
2017-12-24T22:06:27.212Z,12.60
2017-12-24T22:08:53.958Z,12.27
2017-12-24T22:11:20.689Z,13.00
2017-12-24T22:13:47.530Z,14.02
2017-12-24T22:16:14.271Z,13.13
2017-12-24T22:18:41.026Z,12.80
2017-12-24T22:21:07.795Z,11.80
2017-12-24T22:23:34.538Z,12.67
2017-12-24T22:26:01.278Z,11.77
2017-12-24T22:28:28.058Z,11.57
2017-12-24T22:30:54.813Z,11.90
2017-12-24T22:33:21.555Z,10.97
2017-12-24T22:35:48.294Z,11.17
2017-12-24T22:38:15.035Z,11.90
2017-12-24T22:40:41.927Z,12.10
2017-12-24T22:43:08.664Z,12.03
2017-12-24T22:45:35.402Z,11.75
2017-12-24T22:48:02.150Z,12.60
2017-12-24T22:50:28.905Z,11.03
2017-12-24T22:52:55.649Z,10.83
2017-12-24T22:55:22.419Z,10.95
2017-12-24T22:57:49.171Z,9.67
2017-12-24T23:00:15.940Z,10.20
2017-12-24T23:02:42.665Z,10.03
2017-12-24T23:05:09.434Z,9.90
2017-12-24T23:07:36.185Z,10.20
2017-12-24T23:10:02.956Z,10.52
2017-12-24T23:12:29.719Z,11.35
2017-12-24T23:14:56.478Z,9.60
2017-12-24T23:17:23.223Z,10.93
2017-12-24T23:19:50.008Z,10.45
2017-12-24T23:22:16.743Z,11.23
2017-12-24T23:24:43.489Z,10.70
2017-12-24T23:27:10.258Z,10.60
2017-12-24T23:29:37.006Z,11.00
2017-12-24T23:32:03.729Z,10.90
2017-12-24T23:34:30.496Z,10.20
2017-12-24T23:36:57.398Z,11.40
2017-12-24T23:39:24.148Z,10.65
2017-12-24T23:41:50.918Z,10.20
2017-12-24T23:44:17.686Z,11.43
2017-12-24T23:46:44.452Z,11.15
2017-12-24T23:49:11.243Z,11.68
2017-12-24T23:51:38.039Z,10.80
2017-12-24T23:54:04.768Z,11.27
2017-12-24T23:56:31.624Z,10.27
2017-12-24T23:58:58.347Z,9.65
